sensor_id;sensor_type;location;lat;lon;timestamp;P1;durP1;ratioP1;P2;durP2;ratioP2
76459;SDS011;65299;46.084;18.762;2023-07-02T00:02:35;0.50;;;0.50;;
76459;SDS011;65299;46.084;18.762;2023-07-02T00:05:36;0.32;;;0.32;;
76459;SDS011;65299;46.084;18.762;2023-07-02T00:08:37;0.30;;;0.13;;
76459;SDS011;65299;46.084;18.762;2023-07-02T00:11:37;0.60;;;0.50;;
76459;SDS011;65299;46.084;18.762;2023-07-02T00:14:39;0.35;;;0.35;;
76459;SDS011;65299;46.084;18.762;2023-07-02T00:17:39;1.17;;;0.53;;
76459;SDS011;65299;46.084;18.762;2023-07-02T00:20:40;0.57;;;0.50;;
76459;SDS011;65299;46.084;18.762;2023-07-02T00:23:41;0.40;;;0.20;;
76459;SDS011;65299;46.084;18.762;2023-07-02T00:26:42;1.23;;;0.53;;
76459;SDS011;65299;46.084;18.762;2023-07-02T00:29:42;0.90;;;0.75;;
76459;SDS011;65299;46.084;18.762;2023-07-02T00:32:43;0.37;;;0.37;;
76459;SDS011;65299;46.084;18.762;2023-07-02T00:35:43;0.10;;;0.00;;
76459;SDS011;65299;46.084;18.762;2023-07-02T00:38:44;0.35;;;0.35;;
76459;SDS011;65299;46.084;18.762;2023-07-02T00:41:45;0.30;;;0.30;;
76459;SDS011;65299;46.084;18.762;2023-07-02T00:44:49;0.30;;;0.30;;
76459;SDS011;65299;46.084;18.762;2023-07-02T00:47:53;0.20;;;0.10;;
76459;SDS011;65299;46.084;18.762;2023-07-02T00:50:55;0.15;;;0.10;;
76459;SDS011;65299;46.084;18.762;2023-07-02T00:53:56;0.30;;;0.30;;
76459;SDS011;65299;46.084;18.762;2023-07-02T00:56:58;0.60;;;0.30;;
76459;SDS011;65299;46.084;18.762;2023-07-02T01:00:02;0.00;;;0.00;;
76459;SDS011;65299;46.084;18.762;2023-07-02T01:03:03;1.10;;;0.43;;
76459;SDS011;65299;46.084;18.762;2023-07-02T01:06:03;0.10;;;0.10;;
76459;SDS011;65299;46.084;18.762;2023-07-02T01:09:04;0.40;;;0.40;;
76459;SDS011;65299;46.084;18.762;2023-07-02T01:12:06;0.57;;;0.57;;
76459;SDS011;65299;46.084;18.762;2023-07-02T01:15:09;0.60;;;0.05;;
76459;SDS011;65299;46.084;18.762;2023-07-02T01:18:10;0.15;;;0.10;;
76459;SDS011;65299;46.084;18.762;2023-07-02T01:21:12;0.20;;;0.13;;
76459;SDS011;65299;46.084;18.762;2023-07-02T01:24:13;0.13;;;0.13;;
76459;SDS011;65299;46.084;18.762;2023-07-02T01:27:14;0.10;;;0.10;;
76459;SDS011;65299;46.084;18.762;2023-07-02T01:30:16;0.40;;;0.40;;
76459;SDS011;65299;46.084;18.762;2023-07-02T01:33:16;0.20;;;0.20;;
76459;SDS011;65299;46.084;18.762;2023-07-02T01:36:17;0.20;;;0.13;;
76459;SDS011;65299;46.084;18.762;2023-07-02T01:39:17;0.17;;;0.17;;
76459;SDS011;65299;46.084;18.762;2023-07-02T01:42:18;1.83;;;0.38;;
76459;SDS011;65299;46.084;18.762;2023-07-02T01:45:19;0.00;;;0.00;;
76459;SDS011;65299;46.084;18.762;2023-07-02T01:48:19;2.15;;;0.22;;
76459;SDS011;65299;46.084;18.762;2023-07-02T01:51:20;0.37;;;0.17;;
76459;SDS011;65299;46.084;18.762;2023-07-02T01:54:21;1.40;;;1.07;;
76459;SDS011;65299;46.084;18.762;2023-07-02T01:57:22;0.17;;;0.08;;
76459;SDS011;65299;46.084;18.762;2023-07-02T02:00:22;0.13;;;0.13;;
76459;SDS011;65299;46.084;18.762;2023-07-02T02:03:24;1.80;;;0.80;;
76459;SDS011;65299;46.084;18.762;2023-07-02T02:06:24;0.10;;;0.10;;
76459;SDS011;65299;46.084;18.762;2023-07-02T02:09:25;0.40;;;0.23;;
76459;SDS011;65299;46.084;18.762;2023-07-02T02:12:28;0.77;;;0.60;;
76459;SDS011;65299;46.084;18.762;2023-07-02T02:15:28;0.13;;;0.13;;
76459;SDS011;65299;46.084;18.762;2023-07-02T02:18:29;0.20;;;0.10;;
76459;SDS011;65299;46.084;18.762;2023-07-02T02:21:29;0.97;;;0.97;;
76459;SDS011;65299;46.084;18.762;2023-07-02T02:24:30;1.23;;;0.52;;
76459;SDS011;65299;46.084;18.762;2023-07-02T02:27:31;0.20;;;0.20;;
76459;SDS011;65299;46.084;18.762;2023-07-02T02:30:31;0.37;;;0.37;;
76459;SDS011;65299;46.084;18.762;2023-07-02T02:33:32;0.13;;;0.13;;
76459;SDS011;65299;46.084;18.762;2023-07-02T02:36:33;0.68;;;0.35;;
76459;SDS011;65299;46.084;18.762;2023-07-02T02:39:33;0.30;;;0.30;;
76459;SDS011;65299;46.084;18.762;2023-07-02T02:42:34;0.63;;;0.47;;
76459;SDS011;65299;46.084;18.762;2023-07-02T02:45:36;0.50;;;0.20;;
76459;SDS011;65299;46.084;18.762;2023-07-02T02:48:36;0.63;;;0.17;;
76459;SDS011;65299;46.084;18.762;2023-07-02T02:51:37;0.68;;;0.68;;
76459;SDS011;65299;46.084;18.762;2023-07-02T02:54:37;0.57;;;0.57;;
76459;SDS011;65299;46.084;18.762;2023-07-02T02:57:37;0.40;;;0.40;;
76459;SDS011;65299;46.084;18.762;2023-07-02T03:00:38;0.37;;;0.30;;
76459;SDS011;65299;46.084;18.762;2023-07-02T03:03:42;0.40;;;0.30;;
76459;SDS011;65299;46.084;18.762;2023-07-02T03:06:45;0.03;;;0.00;;
76459;SDS011;65299;46.084;18.762;2023-07-02T03:09:46;0.40;;;0.30;;
76459;SDS011;65299;46.084;18.762;2023-07-02T03:12:47;0.80;;;0.68;;
76459;SDS011;65299;46.084;18.762;2023-07-02T03:15:48;0.53;;;0.47;;
76459;SDS011;65299;46.084;18.762;2023-07-02T03:18:48;1.02;;;0.70;;
76459;SDS011;65299;46.084;18.762;2023-07-02T03:21:49;0.10;;;0.10;;
76459;SDS011;65299;46.084;18.762;2023-07-02T03:24:49;0.90;;;0.73;;
76459;SDS011;65299;46.084;18.762;2023-07-02T03:27:50;0.93;;;0.57;;
76459;SDS011;65299;46.084;18.762;2023-07-02T03:30:50;0.80;;;0.70;;
76459;SDS011;65299;46.084;18.762;2023-07-02T03:33:50;3.27;;;0.60;;
76459;SDS011;65299;46.084;18.762;2023-07-02T03:36:51;0.50;;;0.43;;
76459;SDS011;65299;46.084;18.762;2023-07-02T03:39:52;0.20;;;0.20;;
76459;SDS011;65299;46.084;18.762;2023-07-02T03:42:52;1.17;;;0.30;;
76459;SDS011;65299;46.084;18.762;2023-07-02T03:45:53;0.10;;;0.10;;
76459;SDS011;65299;46.084;18.762;2023-07-02T03:48:53;0.40;;;0.40;;
76459;SDS011;65299;46.084;18.762;2023-07-02T03:51:53;0.10;;;0.10;;
76459;SDS011;65299;46.084;18.762;2023-07-02T03:54:54;8.63;;;0.97;;
76459;SDS011;65299;46.084;18.762;2023-07-02T03:57:54;0.40;;;0.40;;
76459;SDS011;65299;46.084;18.762;2023-07-02T04:00:55;0.87;;;0.50;;
76459;SDS011;65299;46.084;18.762;2023-07-02T04:03:55;0.20;;;0.20;;
76459;SDS011;65299;46.084;18.762;2023-07-02T04:06:56;0.95;;;0.57;;
76459;SDS011;65299;46.084;18.762;2023-07-02T04:09:57;0.57;;;0.20;;
76459;SDS011;65299;46.084;18.762;2023-07-02T04:12:57;1.17;;;0.30;;
76459;SDS011;65299;46.084;18.762;2023-07-02T04:15:57;0.17;;;0.17;;
76459;SDS011;65299;46.084;18.762;2023-07-02T04:18:58;0.20;;;0.20;;
76459;SDS011;65299;46.084;18.762;2023-07-02T04:21:59;0.60;;;0.45;;
76459;SDS011;65299;46.084;18.762;2023-07-02T04:25:00;2.73;;;0.70;;
76459;SDS011;65299;46.084;18.762;2023-07-02T04:28:00;0.40;;;0.37;;
76459;SDS011;65299;46.084;18.762;2023-07-02T04:31:01;0.37;;;0.27;;
76459;SDS011;65299;46.084;18.762;2023-07-02T04:34:01;0.60;;;0.60;;
76459;SDS011;65299;46.084;18.762;2023-07-02T04:37:02;0.22;;;0.22;;
76459;SDS011;65299;46.084;18.762;2023-07-02T04:40:04;0.33;;;0.30;;
76459;SDS011;65299;46.084;18.762;2023-07-02T04:43:09;0.50;;;0.50;;
76459;SDS011;65299;46.084;18.762;2023-07-02T04:46:10;1.60;;;1.00;;
76459;SDS011;65299;46.084;18.762;2023-07-02T04:49:12;0.20;;;0.20;;
76459;SDS011;65299;46.084;18.762;2023-07-02T04:52:12;2.17;;;1.00;;
76459;SDS011;65299;46.084;18.762;2023-07-02T04:55:12;11.07;;;0.27;;
76459;SDS011;65299;46.084;18.762;2023-07-02T04:58:13;1.90;;;0.80;;
76459;SDS011;65299;46.084;18.762;2023-07-02T05:01:13;1.30;;;1.07;;
76459;SDS011;65299;46.084;18.762;2023-07-02T05:04:14;0.57;;;0.57;;
76459;SDS011;65299;46.084;18.762;2023-07-02T05:07:15;1.33;;;1.03;;
76459;SDS011;65299;46.084;18.762;2023-07-02T05:10:16;0.47;;;0.47;;
76459;SDS011;65299;46.084;18.762;2023-07-02T05:13:17;2.10;;;0.67;;
76459;SDS011;65299;46.084;18.762;2023-07-02T05:16:17;0.43;;;0.20;;
76459;SDS011;65299;46.084;18.762;2023-07-02T05:19:18;0.33;;;0.30;;
76459;SDS011;65299;46.084;18.762;2023-07-02T05:22:18;0.55;;;0.55;;
76459;SDS011;65299;46.084;18.762;2023-07-02T05:25:19;0.80;;;0.80;;
76459;SDS011;65299;46.084;18.762;2023-07-02T05:28:19;0.93;;;0.50;;
76459;SDS011;65299;46.084;18.762;2023-07-02T05:31:20;0.30;;;0.30;;
76459;SDS011;65299;46.084;18.762;2023-07-02T05:34:20;0.37;;;0.20;;
76459;SDS011;65299;46.084;18.762;2023-07-02T05:37:21;1.67;;;0.97;;
76459;SDS011;65299;46.084;18.762;2023-07-02T05:40:21;0.60;;;0.40;;
76459;SDS011;65299;46.084;18.762;2023-07-02T05:43:22;0.20;;;0.20;;
76459;SDS011;65299;46.084;18.762;2023-07-02T05:46:22;2.07;;;0.40;;
76459;SDS011;65299;46.084;18.762;2023-07-02T05:49:23;1.48;;;0.85;;
76459;SDS011;65299;46.084;18.762;2023-07-02T05:52:23;1.50;;;0.57;;
76459;SDS011;65299;46.084;18.762;2023-07-02T05:55:23;0.40;;;0.40;;
76459;SDS011;65299;46.084;18.762;2023-07-02T05:58:24;1.17;;;0.60;;
76459;SDS011;65299;46.084;18.762;2023-07-02T06:01:24;0.93;;;0.57;;
76459;SDS011;65299;46.084;18.762;2023-07-02T06:04:25;0.85;;;0.22;;
76459;SDS011;65299;46.084;18.762;2023-07-02T06:07:26;0.90;;;0.77;;
76459;SDS011;65299;46.084;18.762;2023-07-02T06:10:26;0.13;;;0.13;;
76459;SDS011;65299;46.084;18.762;2023-07-02T06:13:27;0.37;;;0.37;;
76459;SDS011;65299;46.084;18.762;2023-07-02T06:16:27;0.57;;;0.20;;
76459;SDS011;65299;46.084;18.762;2023-07-02T06:19:27;0.10;;;0.10;;
76459;SDS011;65299;46.084;18.762;2023-07-02T06:22:28;0.70;;;0.63;;
76459;SDS011;65299;46.084;18.762;2023-07-02T06:25:28;0.13;;;0.10;;
76459;SDS011;65299;46.084;18.762;2023-07-02T06:28:29;0.33;;;0.33;;
76459;SDS011;65299;46.084;18.762;2023-07-02T06:31:30;0.57;;;0.57;;
76459;SDS011;65299;46.084;18.762;2023-07-02T06:34:30;1.53;;;0.43;;
76459;SDS011;65299;46.084;18.762;2023-07-02T06:37:31;0.57;;;0.27;;
76459;SDS011;65299;46.084;18.762;2023-07-02T06:40:32;0.32;;;0.25;;
76459;SDS011;65299;46.084;18.762;2023-07-02T06:43:32;1.43;;;0.60;;
76459;SDS011;65299;46.084;18.762;2023-07-02T06:46:32;0.30;;;0.27;;
76459;SDS011;65299;46.084;18.762;2023-07-02T06:49:33;5.57;;;4.32;;
76459;SDS011;65299;46.084;18.762;2023-07-02T06:52:33;7.40;;;5.20;;
76459;SDS011;65299;46.084;18.762;2023-07-02T06:55:34;7.10;;;4.90;;
76459;SDS011;65299;46.084;18.762;2023-07-02T06:58:34;8.05;;;4.90;;
76459;SDS011;65299;46.084;18.762;2023-07-02T07:01:35;7.63;;;4.63;;
76459;SDS011;65299;46.084;18.762;2023-07-02T07:04:36;6.30;;;4.53;;
76459;SDS011;65299;46.084;18.762;2023-07-02T07:07:37;8.05;;;4.80;;
76459;SDS011;65299;46.084;18.762;2023-07-02T07:10:37;6.93;;;4.63;;
76459;SDS011;65299;46.084;18.762;2023-07-02T07:13:38;5.53;;;4.37;;
76459;SDS011;65299;46.084;18.762;2023-07-02T07:16:38;6.37;;;4.40;;
76459;SDS011;65299;46.084;18.762;2023-07-02T07:19:39;5.60;;;3.63;;
76459;SDS011;65299;46.084;18.762;2023-07-02T07:22:39;4.83;;;3.63;;
76459;SDS011;65299;46.084;18.762;2023-07-02T07:25:40;5.77;;;3.07;;
76459;SDS011;65299;46.084;18.762;2023-07-02T07:28:40;5.03;;;3.53;;
76459;SDS011;65299;46.084;18.762;2023-07-02T07:31:41;11.70;;;3.70;;
76459;SDS011;65299;46.084;18.762;2023-07-02T07:34:41;4.30;;;3.13;;
76459;SDS011;65299;46.084;18.762;2023-07-02T07:37:42;5.25;;;3.22;;
76459;SDS011;65299;46.084;18.762;2023-07-02T07:40:43;6.20;;;2.83;;
76459;SDS011;65299;46.084;18.762;2023-07-02T07:43:44;6.03;;;3.10;;
76459;SDS011;65299;46.084;18.762;2023-07-02T07:46:44;3.97;;;2.77;;
76459;SDS011;65299;46.084;18.762;2023-07-02T07:49:44;4.37;;;2.83;;
76459;SDS011;65299;46.084;18.762;2023-07-02T07:52:45;3.00;;;2.50;;
76459;SDS011;65299;46.084;18.762;2023-07-02T07:55:45;4.83;;;2.93;;
76459;SDS011;65299;46.084;18.762;2023-07-02T07:58:46;6.77;;;3.30;;
76459;SDS011;65299;46.084;18.762;2023-07-02T08:01:46;5.63;;;3.13;;
76459;SDS011;65299;46.084;18.762;2023-07-02T08:04:48;4.00;;;3.03;;
76459;SDS011;65299;46.084;18.762;2023-07-02T08:07:48;5.30;;;3.10;;
76459;SDS011;65299;46.084;18.762;2023-07-02T08:10:49;4.60;;;2.80;;
76459;SDS011;65299;46.084;18.762;2023-07-02T08:13:50;3.53;;;2.72;;
76459;SDS011;65299;46.084;18.762;2023-07-02T08:16:50;4.63;;;3.00;;
76459;SDS011;65299;46.084;18.762;2023-07-02T08:19:51;3.47;;;2.80;;
76459;SDS011;65299;46.084;18.762;2023-07-02T08:22:52;4.13;;;2.80;;
76459;SDS011;65299;46.084;18.762;2023-07-02T08:25:52;4.40;;;2.70;;
76459;SDS011;65299;46.084;18.762;2023-07-02T08:28:53;2.87;;;2.57;;
76459;SDS011;65299;46.084;18.762;2023-07-02T08:31:53;5.23;;;2.90;;
76459;SDS011;65299;46.084;18.762;2023-07-02T08:34:53;4.10;;;2.67;;
76459;SDS011;65299;46.084;18.762;2023-07-02T08:37:54;3.92;;;3.08;;
76459;SDS011;65299;46.084;18.762;2023-07-02T08:40:54;4.57;;;2.73;;
76459;SDS011;65299;46.084;18.762;2023-07-02T08:43:55;4.70;;;2.53;;
76459;SDS011;65299;46.084;18.762;2023-07-02T08:46:56;4.20;;;2.70;;
76459;SDS011;65299;46.084;18.762;2023-07-02T08:49:57;4.47;;;2.50;;
76459;SDS011;65299;46.084;18.762;2023-07-02T08:52:57;3.38;;;2.60;;
76459;SDS011;65299;46.084;18.762;2023-07-02T08:55:58;4.67;;;2.30;;
76459;SDS011;65299;46.084;18.762;2023-07-02T08:58:59;4.43;;;2.85;;
76459;SDS011;65299;46.084;18.762;2023-07-02T09:01:59;4.53;;;2.60;;
76459;SDS011;65299;46.084;18.762;2023-07-02T09:05:00;4.00;;;2.73;;
76459;SDS011;65299;46.084;18.762;2023-07-02T09:08:01;3.65;;;2.50;;
76459;SDS011;65299;46.084;18.762;2023-07-02T09:11:20;4.50;;;2.53;;
76459;SDS011;65299;46.084;18.762;2023-07-02T09:14:24;3.17;;;2.40;;
76459;SDS011;65299;46.084;18.762;2023-07-02T09:17:29;4.05;;;2.80;;
76459;SDS011;65299;46.084;18.762;2023-07-02T09:20:34;4.28;;;2.50;;
76459;SDS011;65299;46.084;18.762;2023-07-02T09:23:34;3.53;;;2.60;;
76459;SDS011;65299;46.084;18.762;2023-07-02T09:26:35;4.30;;;2.90;;
76459;SDS011;65299;46.084;18.762;2023-07-02T09:29:36;5.47;;;2.63;;
76459;SDS011;65299;46.084;18.762;2023-07-02T09:32:36;4.07;;;2.65;;
76459;SDS011;65299;46.084;18.762;2023-07-02T09:35:37;4.23;;;2.83;;
76459;SDS011;65299;46.084;18.762;2023-07-02T09:38:38;4.88;;;3.20;;
76459;SDS011;65299;46.084;18.762;2023-07-02T09:41:42;4.87;;;2.60;;
76459;SDS011;65299;46.084;18.762;2023-07-02T09:44:44;3.38;;;2.50;;
76459;SDS011;65299;46.084;18.762;2023-07-02T09:47:47;4.13;;;3.30;;
76459;SDS011;65299;46.084;18.762;2023-07-02T09:50:50;3.85;;;3.30;;
76459;SDS011;65299;46.084;18.762;2023-07-02T09:53:51;8.50;;;3.13;;
76459;SDS011;65299;46.084;18.762;2023-07-02T09:56:52;7.63;;;3.50;;
76459;SDS011;65299;46.084;18.762;2023-07-02T09:59:52;3.70;;;3.10;;
76459;SDS011;65299;46.084;18.762;2023-07-02T10:02:53;4.32;;;2.90;;
76459;SDS011;65299;46.084;18.762;2023-07-02T10:06:01;3.63;;;2.97;;
76459;SDS011;65299;46.084;18.762;2023-07-02T10:09:03;3.70;;;3.17;;
76459;SDS011;65299;46.084;18.762;2023-07-02T10:12:16;4.73;;;2.90;;
76459;SDS011;65299;46.084;18.762;2023-07-02T10:15:24;5.72;;;3.00;;
76459;SDS011;65299;46.084;18.762;2023-07-02T10:18:26;3.67;;;2.92;;
76459;SDS011;65299;46.084;18.762;2023-07-02T10:21:26;4.50;;;3.30;;
76459;SDS011;65299;46.084;18.762;2023-07-02T10:24:27;4.10;;;2.77;;
76459;SDS011;65299;46.084;18.762;2023-07-02T10:27:37;3.00;;;2.60;;
76459;SDS011;65299;46.084;18.762;2023-07-02T10:30:39;3.78;;;3.00;;
76459;SDS011;65299;46.084;18.762;2023-07-02T10:33:43;4.00;;;3.20;;
76459;SDS011;65299;46.084;18.762;2023-07-02T10:36:43;4.95;;;2.80;;
76459;SDS011;65299;46.084;18.762;2023-07-02T10:39:44;5.17;;;2.90;;
76459;SDS011;65299;46.084;18.762;2023-07-02T10:42:48;4.53;;;2.90;;
76459;SDS011;65299;46.084;18.762;2023-07-02T10:45:49;4.30;;;2.50;;
76459;SDS011;65299;46.084;18.762;2023-07-02T10:48:50;7.88;;;2.67;;
76459;SDS011;65299;46.084;18.762;2023-07-02T10:52:01;4.30;;;2.83;;
76459;SDS011;65299;46.084;18.762;2023-07-02T10:55:07;4.85;;;2.55;;
76459;SDS011;65299;46.084;18.762;2023-07-02T10:58:08;4.78;;;2.72;;
76459;SDS011;65299;46.084;18.762;2023-07-02T11:01:10;5.53;;;3.30;;
76459;SDS011;65299;46.084;18.762;2023-07-02T11:04:10;4.87;;;2.70;;
76459;SDS011;65299;46.084;18.762;2023-07-02T11:07:13;6.07;;;3.20;;
76459;SDS011;65299;46.084;18.762;2023-07-02T11:10:17;4.55;;;2.75;;
76459;SDS011;65299;46.084;18.762;2023-07-02T11:13:19;3.65;;;2.72;;
76459;SDS011;65299;46.084;18.762;2023-07-02T11:16:24;3.73;;;2.57;;
76459;SDS011;65299;46.084;18.762;2023-07-02T11:19:26;5.43;;;2.97;;
76459;SDS011;65299;46.084;18.762;2023-07-02T11:22:32;3.20;;;2.60;;
76459;SDS011;65299;46.084;18.762;2023-07-02T11:25:33;3.58;;;2.80;;
76459;SDS011;65299;46.084;18.762;2023-07-02T11:28:34;5.57;;;2.97;;
76459;SDS011;65299;46.084;18.762;2023-07-02T11:31:37;3.40;;;3.08;;
76459;SDS011;65299;46.084;18.762;2023-07-02T11:34:38;5.43;;;3.17;;
76459;SDS011;65299;46.084;18.762;2023-07-02T11:37:39;6.27;;;3.00;;
76459;SDS011;65299;46.084;18.762;2023-07-02T11:40:39;4.55;;;3.13;;
76459;SDS011;65299;46.084;18.762;2023-07-02T11:43:40;5.60;;;3.03;;
76459;SDS011;65299;46.084;18.762;2023-07-02T11:46:40;4.80;;;2.90;;
76459;SDS011;65299;46.084;18.762;2023-07-02T11:49:40;3.93;;;3.00;;
76459;SDS011;65299;46.084;18.762;2023-07-02T11:52:41;6.00;;;3.37;;
76459;SDS011;65299;46.084;18.762;2023-07-02T11:55:41;4.25;;;3.20;;
76459;SDS011;65299;46.084;18.762;2023-07-02T11:58:42;5.20;;;3.00;;
76459;SDS011;65299;46.084;18.762;2023-07-02T12:01:43;6.45;;;3.15;;
76459;SDS011;65299;46.084;18.762;2023-07-02T12:04:43;4.83;;;2.90;;
76459;SDS011;65299;46.084;18.762;2023-07-02T12:07:44;3.73;;;2.73;;
76459;SDS011;65299;46.084;18.762;2023-07-02T12:10:44;6.03;;;3.00;;
76459;SDS011;65299;46.084;18.762;2023-07-02T12:13:44;4.00;;;2.77;;
76459;SDS011;65299;46.084;18.762;2023-07-02T12:16:45;5.27;;;2.90;;
76459;SDS011;65299;46.084;18.762;2023-07-02T12:19:45;3.80;;;3.10;;
76459;SDS011;65299;46.084;18.762;2023-07-02T12:22:46;6.73;;;3.50;;
76459;SDS011;65299;46.084;18.762;2023-07-02T12:25:46;5.68;;;2.83;;
76459;SDS011;65299;46.084;18.762;2023-07-02T12:28:46;4.63;;;3.10;;
76459;SDS011;65299;46.084;18.762;2023-07-02T12:31:47;3.20;;;2.80;;
76459;SDS011;65299;46.084;18.762;2023-07-02T12:34:47;3.20;;;2.50;;
76459;SDS011;65299;46.084;18.762;2023-07-02T12:37:49;5.60;;;2.60;;
76459;SDS011;65299;46.084;18.762;2023-07-02T12:40:51;3.05;;;2.47;;
76459;SDS011;65299;46.084;18.762;2023-07-02T12:43:51;2.53;;;2.30;;
76459;SDS011;65299;46.084;18.762;2023-07-02T12:46:51;2.60;;;2.40;;
76459;SDS011;65299;46.084;18.762;2023-07-02T12:49:52;3.27;;;2.00;;
76459;SDS011;65299;46.084;18.762;2023-07-02T12:52:52;2.57;;;2.07;;
76459;SDS011;65299;46.084;18.762;2023-07-02T12:55:53;2.97;;;2.10;;
76459;SDS011;65299;46.084;18.762;2023-07-02T12:58:54;3.80;;;2.10;;
76459;SDS011;65299;46.084;18.762;2023-07-02T13:01:55;2.87;;;1.90;;
76459;SDS011;65299;46.084;18.762;2023-07-02T13:04:55;5.07;;;1.80;;
76459;SDS011;65299;46.084;18.762;2023-07-02T13:07:56;3.33;;;2.00;;
76459;SDS011;65299;46.084;18.762;2023-07-02T13:10:56;3.20;;;1.97;;
76459;SDS011;65299;46.084;18.762;2023-07-02T13:13:56;2.37;;;1.77;;
76459;SDS011;65299;46.084;18.762;2023-07-02T13:16:57;2.83;;;1.67;;
76459;SDS011;65299;46.084;18.762;2023-07-02T13:19:59;2.00;;;1.80;;
76459;SDS011;65299;46.084;18.762;2023-07-02T13:22:59;2.17;;;1.80;;
76459;SDS011;65299;46.084;18.762;2023-07-02T13:26:00;2.88;;;1.50;;
76459;SDS011;65299;46.084;18.762;2023-07-02T13:29:00;2.13;;;1.40;;
76459;SDS011;65299;46.084;18.762;2023-07-02T13:32:01;1.87;;;1.23;;
76459;SDS011;65299;46.084;18.762;2023-07-02T13:35:01;1.33;;;1.20;;
76459;SDS011;65299;46.084;18.762;2023-07-02T13:38:02;1.77;;;1.20;;
76459;SDS011;65299;46.084;18.762;2023-07-02T13:41:04;2.50;;;1.05;;
76459;SDS011;65299;46.084;18.762;2023-07-02T13:44:05;1.00;;;0.80;;
76459;SDS011;65299;46.084;18.762;2023-07-02T13:47:05;0.90;;;0.70;;
76459;SDS011;65299;46.084;18.762;2023-07-02T13:50:06;0.50;;;0.40;;
76459;SDS011;65299;46.084;18.762;2023-07-02T13:53:07;0.67;;;0.40;;
76459;SDS011;65299;46.084;18.762;2023-07-02T13:56:08;1.83;;;0.50;;
76459;SDS011;65299;46.084;18.762;2023-07-02T13:59:09;0.40;;;0.40;;
76459;SDS011;65299;46.084;18.762;2023-07-02T14:02:09;0.88;;;0.30;;
76459;SDS011;65299;46.084;18.762;2023-07-02T14:05:09;0.60;;;0.40;;
76459;SDS011;65299;46.084;18.762;2023-07-02T14:08:10;0.27;;;0.27;;
76459;SDS011;65299;46.084;18.762;2023-07-02T14:11:10;1.00;;;0.30;;
76459;SDS011;65299;46.084;18.762;2023-07-02T14:14:10;0.60;;;0.37;;
76459;SDS011;65299;46.084;18.762;2023-07-02T14:17:11;0.55;;;0.55;;
76459;SDS011;65299;46.084;18.762;2023-07-02T14:20:12;0.40;;;0.40;;
76459;SDS011;65299;46.084;18.762;2023-07-02T14:23:12;0.55;;;0.40;;
76459;SDS011;65299;46.084;18.762;2023-07-02T14:26:13;1.90;;;0.43;;
76459;SDS011;65299;46.084;18.762;2023-07-02T14:29:13;0.67;;;0.30;;
76459;SDS011;65299;46.084;18.762;2023-07-02T14:32:14;0.50;;;0.50;;
76459;SDS011;65299;46.084;18.762;2023-07-02T14:35:14;1.60;;;1.20;;
76459;SDS011;65299;46.084;18.762;2023-07-02T14:38:15;1.67;;;1.13;;
76459;SDS011;65299;46.084;18.762;2023-07-02T14:41:15;0.80;;;0.80;;
76459;SDS011;65299;46.084;18.762;2023-07-02T14:44:15;1.33;;;1.15;;
76459;SDS011;65299;46.084;18.762;2023-07-02T14:47:16;1.63;;;1.53;;
76459;SDS011;65299;46.084;18.762;2023-07-02T14:50:16;1.30;;;1.30;;
76459;SDS011;65299;46.084;18.762;2023-07-02T14:53:17;1.27;;;1.17;;
76459;SDS011;65299;46.084;18.762;2023-07-02T14:56:18;1.58;;;1.48;;
76459;SDS011;65299;46.084;18.762;2023-07-02T14:59:18;1.70;;;1.60;;
76459;SDS011;65299;46.084;18.762;2023-07-02T15:02:19;1.53;;;1.47;;
76459;SDS011;65299;46.084;18.762;2023-07-02T15:05:19;2.28;;;1.50;;
76459;SDS011;65299;46.084;18.762;2023-07-02T15:08:20;1.90;;;1.77;;
76459;SDS011;65299;46.084;18.762;2023-07-02T15:11:21;2.13;;;1.58;;
76459;SDS011;65299;46.084;18.762;2023-07-02T15:14:22;2.80;;;1.70;;
76459;SDS011;65299;46.084;18.762;2023-07-02T15:17:22;1.87;;;1.77;;
76459;SDS011;65299;46.084;18.762;2023-07-02T15:20:23;1.80;;;1.70;;
76459;SDS011;65299;46.084;18.762;2023-07-02T15:23:24;1.57;;;1.47;;
76459;SDS011;65299;46.084;18.762;2023-07-02T15:26:26;2.22;;;2.13;;
76459;SDS011;65299;46.084;18.762;2023-07-02T15:29:26;1.83;;;1.73;;
76459;SDS011;65299;46.084;18.762;2023-07-02T15:32:26;2.10;;;1.90;;
76459;SDS011;65299;46.084;18.762;2023-07-02T15:35:27;1.90;;;1.80;;
76459;SDS011;65299;46.084;18.762;2023-07-02T15:38:27;2.17;;;2.03;;
76459;SDS011;65299;46.084;18.762;2023-07-02T15:41:28;6.53;;;1.75;;
76459;SDS011;65299;46.084;18.762;2023-07-02T15:44:29;1.83;;;1.73;;
76459;SDS011;65299;46.084;18.762;2023-07-02T15:47:29;4.17;;;1.80;;
76459;SDS011;65299;46.084;18.762;2023-07-02T15:50:30;2.38;;;1.50;;
76459;SDS011;65299;46.084;18.762;2023-07-02T15:53:31;1.60;;;1.50;;
76459;SDS011;65299;46.084;18.762;2023-07-02T15:56:33;1.85;;;1.50;;
76459;SDS011;65299;46.084;18.762;2023-07-02T15:59:33;0.83;;;0.83;;
76459;SDS011;65299;46.084;18.762;2023-07-02T16:02:35;1.75;;;1.20;;
76459;SDS011;65299;46.084;18.762;2023-07-02T16:05:36;1.33;;;1.20;;
76459;SDS011;65299;46.084;18.762;2023-07-02T16:08:40;0.98;;;0.85;;
76459;SDS011;65299;46.084;18.762;2023-07-02T16:11:40;2.10;;;1.08;;
76459;SDS011;65299;46.084;18.762;2023-07-02T16:14:43;1.73;;;0.73;;
76459;SDS011;65299;46.084;18.762;2023-07-02T16:17:46;1.05;;;0.85;;
76459;SDS011;65299;46.084;18.762;2023-07-02T16:20:53;0.80;;;0.80;;
76459;SDS011;65299;46.084;18.762;2023-07-02T16:23:58;1.33;;;1.00;;
76459;SDS011;65299;46.084;18.762;2023-07-02T16:26:58;1.00;;;0.90;;
76459;SDS011;65299;46.084;18.762;2023-07-02T16:29:59;1.95;;;0.80;;
76459;SDS011;65299;46.084;18.762;2023-07-02T16:33:00;1.60;;;1.07;;
76459;SDS011;65299;46.084;18.762;2023-07-02T16:36:05;1.10;;;1.00;;
76459;SDS011;65299;46.084;18.762;2023-07-02T16:39:08;1.40;;;1.27;;
76459;SDS011;65299;46.084;18.762;2023-07-02T16:42:09;0.85;;;0.85;;
76459;SDS011;65299;46.084;18.762;2023-07-02T16:45:11;1.13;;;1.02;;
76459;SDS011;65299;46.084;18.762;2023-07-02T16:48:12;1.00;;;0.90;;
76459;SDS011;65299;46.084;18.762;2023-07-02T16:51:12;2.30;;;0.80;;
76459;SDS011;65299;46.084;18.762;2023-07-02T16:54:13;1.73;;;1.20;;
76459;SDS011;65299;46.084;18.762;2023-07-02T16:57:15;1.02;;;0.95;;
76459;SDS011;65299;46.084;18.762;2023-07-02T17:00:16;4.33;;;0.57;;
76459;SDS011;65299;46.084;18.762;2023-07-02T17:03:17;1.10;;;1.00;;
76459;SDS011;65299;46.084;18.762;2023-07-02T17:06:17;1.10;;;1.00;;
76459;SDS011;65299;46.084;18.762;2023-07-02T17:09:26;0.95;;;0.90;;
76459;SDS011;65299;46.084;18.762;2023-07-02T17:12:34;1.77;;;1.02;;
76459;SDS011;65299;46.084;18.762;2023-07-02T17:15:34;1.60;;;1.10;;
76459;SDS011;65299;46.084;18.762;2023-07-02T17:18:34;2.00;;;1.10;;
76459;SDS011;65299;46.084;18.762;2023-07-02T17:21:35;2.00;;;1.10;;
76459;SDS011;65299;46.084;18.762;2023-07-02T17:24:37;0.98;;;0.88;;
76459;SDS011;65299;46.084;18.762;2023-07-02T17:27:39;1.00;;;0.90;;
76459;SDS011;65299;46.084;18.762;2023-07-02T17:30:40;1.98;;;0.73;;
76459;SDS011;65299;46.084;18.762;2023-07-02T17:33:40;1.47;;;0.80;;
76459;SDS011;65299;46.084;18.762;2023-07-02T17:36:41;1.65;;;1.05;;
76459;SDS011;65299;46.084;18.762;2023-07-02T17:39:41;1.30;;;1.20;;
76459;SDS011;65299;46.084;18.762;2023-07-02T17:42:43;3.90;;;0.90;;
76459;SDS011;65299;46.084;18.762;2023-07-02T17:45:53;1.10;;;1.00;;
76459;SDS011;65299;46.084;18.762;2023-07-02T17:48:54;1.40;;;1.10;;
76459;SDS011;65299;46.084;18.762;2023-07-02T17:51:54;2.10;;;0.97;;
76459;SDS011;65299;46.084;18.762;2023-07-02T17:54:55;2.07;;;1.10;;